Time;durP1;ratioP1;P1;durP2;ratioP2;P2;SDS_P1;SDS_P2;PMS_P1;PMS_P2;Temp;Humidity;BMP_temperature;BMP_pressure;BME280_temperature;BME280_humidity;BME280_pressure;Samples;Min_cycle;Max_cycle;Signal;HPM_P1;HPM_P2
2021/12/22 00:01:12;;;;;;;;;48.50;38.75;;;;;2.13;58.20;101924.69;4979683;28;45366;-45
2021/12/22 00:03:39;;;;;;;;;41.75;34.50;;;;;2.14;57.76;101926.47;4962340;28;45402;-48
2021/12/22 00:06:05;;;;;;;;;49.75;40.00;;;;;2.15;58.19;101917.88;4946287;28;45323;-47
2021/12/22 00:08:30;;;;;;;;;43.50;35.00;;;;;2.16;58.27;101919.63;4979575;28;46985;-50
2021/12/22 00:10:55;;;;;;;;;46.00;38.25;;;;;2.17;58.11;101926.56;4979627;28;45275;-46
2021/12/22 00:13:21;;;;;;;;;47.75;40.25;;;;;2.19;57.92;101921.44;4983138;28;45701;-46
2021/12/22 00:15:46;;;;;;;;;42.25;37.50;;;;;2.20;57.89;101912.84;4982790;28;45279;-47
2021/12/22 00:18:12;;;;;;;;;37.50;32.75;;;;;2.12;58.04;101894.41;4983135;28;45335;-48
2021/12/22 00:20:38;;;;;;;;;43.00;37.50;;;;;2.22;57.97;101901.69;4982670;28;45413;-45
2021/12/22 00:23:03;;;;;;;;;44.75;38.25;;;;;2.24;57.76;101905.25;4983004;28;45319;-47
2021/12/22 00:25:29;;;;;;;;;51.75;39.25;;;;;2.25;58.39;101896.66;4982370;28;45185;-45
2021/12/22 00:27:56;;;;;;;;;51.25;42.00;;;;;2.25;58.48;101891.47;4965167;28;46552;-46
2021/12/22 00:30:24;;;;;;;;;42.00;38.25;;;;;2.26;58.05;101897.53;4974171;28;45413;-47
2021/12/22 00:32:52;;;;;;;;;50.50;41.00;;;;;2.28;58.03;101901.06;4972041;28;45310;-46
2021/12/22 00:35:20;;;;;;;;;54.75;42.25;;;;;2.30;58.34;101898.53;4982582;28;45287;-48
2021/12/22 00:37:46;;;;;;;;;51.25;39.50;;;;;2.31;58.44;101901.16;4973792;28;46018;-48
2021/12/22 00:40:12;;;;;;;;;46.00;38.75;;;;;2.33;58.43;101896.03;4982184;28;45161;-47
2021/12/22 00:42:38;;;;;;;;;51.50;43.00;;;;;2.32;58.24;101891.69;4982599;28;45153;-46
2021/12/22 00:45:04;;;;;;;;;54.50;41.00;;;;;2.35;58.35;101900.50;4964926;28;45592;-48
2021/12/22 00:47:30;;;;;;;;;51.50;42.00;;;;;2.37;58.49;101900.53;4982570;28;46277;-50
2021/12/22 00:49:58;;;;;;;;;45.75;37.25;;;;;2.39;58.55;101896.28;4982325;28;45436;-46
2021/12/22 00:52:24;;;;;;;;;41.00;36.75;;;;;2.36;58.54;101894.44;4965101;28;45260;-48
2021/12/22 00:54:49;;;;;;;;;49.00;40.25;;;;;2.41;58.42;101897.22;4982069;28;45273;-49
2021/12/22 00:57:16;;;;;;;;;49.25;39.25;;;;;2.40;58.67;101900.63;4982622;28;45329;-49
2021/12/22 00:59:42;;;;;;;;;45.75;39.25;;;;;2.41;58.69;101899.81;4982159;28;45184;-50
2021/12/22 01:02:10;;;;;;;;;32.25;29.25;;;;;2.42;58.67;101899.00;4982477;28;45384;-50
2021/12/22 01:04:37;;;;;;;;;28.50;23.00;;;;;2.40;58.59;101898.03;4982308;28;46559;-48
2021/12/22 01:07:03;;;;;;;;;43.25;36.50;;;;;2.42;58.75;101904.19;4982234;28;46254;-45
2021/12/22 01:09:29;;;;;;;;;42.25;35.75;;;;;2.41;58.86;101892.91;4982019;28;45163;-45
2021/12/22 01:11:54;;;;;;;;;43.50;37.25;;;;;2.41;58.83;101898.09;4982167;28;45253;-47
2021/12/22 01:14:21;;;;;;;;;40.50;33.25;;;;;2.43;58.30;101896.47;4982084;28;45204;-48
2021/12/22 01:16:49;;;;;;;;;44.00;38.00;;;;;2.41;59.01;101898.09;4982182;28;46199;-48
2021/12/22 01:19:22;;;;;;;;;48.25;38.00;;;;;2.39;59.01;101897.16;4964367;28;45334;-47
2021/12/22 01:21:55;;;;;;;;;40.75;38.00;;;;;2.40;58.97;101895.44;4981879;28;45248;-45
2021/12/22 01:24:28;;;;;;;;;44.75;38.25;;;;;2.41;58.71;101892.03;4981849;28;45263;-50
2021/12/22 01:27:03;;;;;;;;;48.00;39.75;;;;;2.40;58.62;101901.53;4964102;28;47846;-47
2021/12/22 01:29:28;;;;;;;;;46.50;40.75;;;;;2.39;58.88;101894.59;4980693;28;45167;-48
2021/12/22 01:31:56;;;;;;;;;48.50;38.75;;;;;2.39;58.89;101893.69;4960769;28;45438;-48
2021/12/22 01:34:21;;;;;;;;;42.25;38.25;;;;;2.36;59.23;101889.25;4981836;28;45476;-46
2021/12/22 01:36:47;;;;;;;;;58.50;41.25;;;;;2.39;58.62;101894.59;4971639;28;47982;-45
2021/12/22 01:39:12;;;;;;;;;48.50;40.00;;;;;2.41;58.88;101892.03;4981598;28;45167;-47
2021/12/22 01:41:38;;;;;;;;;49.00;40.75;;;;;2.41;59.10;101886.84;4981484;28;45691;-45
2021/12/22 01:44:05;;;;;;;;;49.25;41.75;;;;;2.39;59.19;101891.09;4980370;28;45349;-45
2021/12/22 01:49:11;;;;;;;;;56.75;42.50;;;;;2.39;58.80;101883.28;4981642;28;45255;-48
2021/12/22 01:51:45;;;;;;;;;50.75;38.25;;;;;2.41;58.68;101886.84;4981518;28;45310;-45
2021/12/22 01:54:28;;;;;;;;;50.75;41.75;;;;;2.31;59.13;101863.97;4981408;28;45428;-47
2021/12/22 01:57:00;;;;;;;;;46.25;39.00;;;;;2.40;58.86;101885.06;4981277;28;45388;-49
2021/12/22 01:59:25;;;;;;;;;54.00;42.00;;;;;2.40;59.38;101882.47;4981327;28;45427;-46
2021/12/22 02:01:51;;;;;;;;;55.25;43.75;;;;;2.40;59.15;101883.38;4980329;28;45241;-47
2021/12/22 02:04:16;;;;;;;;;45.75;37.25;;;;;2.40;59.03;101885.97;4981190;28;45321;-46
2021/12/22 02:06:45;;;;;;;;;42.50;38.25;;;;;2.36;58.93;101875.41;4981348;28;46026;-47
2021/12/22 02:09:17;;;;;;;;;55.50;44.25;;;;;2.41;59.32;101884.25;4981134;28;45319;-45
2021/12/22 02:11:42;;;;;;;;;50.75;39.25;;;;;2.41;59.10;101881.66;4981274;28;45397;-45
2021/12/22 02:14:08;;;;;;;;;45.50;39.25;;;;;2.36;59.33;101884.06;4981310;28;45366;-47
2021/12/22 02:16:38;;;;;;;;;45.00;33.75;;;;;2.24;59.48;101870.66;4981204;28;45246;-49
2021/12/22 02:19:06;;;;;;;;;38.50;33.00;;;;;2.35;59.58;101881.41;4981061;28;45395;-47
2021/12/22 02:21:38;;;;;;;;;44.00;38.75;;;;;2.32;59.51;101889.97;4979950;28;45322;-49
2021/12/22 02:24:04;;;;;;;;;53.50;39.50;;;;;2.32;59.25;101887.38;4980728;28;45297;-49
2021/12/22 02:29:35;;;;;;;;;47.00;38.75;;;;;2.30;59.49;101882.97;4936402;28;45341;-46
2021/12/22 02:32:09;;;;;;;;;51.25;42.00;;;;;2.26;59.64;101879.38;4946160;28;45529;-45
2021/12/22 02:34:44;;;;;;;;;49.00;42.50;;;;;2.27;59.76;101878.53;4980164;28;45373;-47
2021/12/22 02:37:14;;;;;;;;;43.50;37.25;;;;;2.23;59.67;101868.88;4972117;28;46281;-46
2021/12/22 02:39:48;;;;;;;;;48.50;39.75;;;;;2.22;59.41;101873.16;4963027;28;45388;-45
2021/12/22 02:42:14;;;;;;;;;50.50;39.75;;;;;2.21;59.50;101873.13;4980834;28;45292;-48
2021/12/22 02:44:39;;;;;;;;;37.25;35.00;;;;;2.14;59.73;101864.22;4980895;28;45172;-46
2021/12/22 02:47:24;;;;;;;;;48.25;39.25;;;;;2.14;59.85;101864.22;4980701;28;45871;-47
2021/12/22 02:49:49;;;;;;;;;46.25;41.25;;;;;2.13;59.53;101865.03;4980573;28;45234;-46
2021/12/22 02:52:17;;;;;;;;;52.25;39.00;;;;;2.11;59.54;101857.22;4980970;28;45154;-46
2021/12/22 02:54:53;;;;;;;;;47.75;38.25;;;;;2.12;59.38;101855.50;4980234;28;45524;-49
2021/12/22 02:57:39;;;;;;;;;50.00;39.25;;;;;2.14;59.36;101855.53;4980676;28;45371;-46
2021/12/22 03:03:26;;;;;;;;;49.50;39.00;;;;;2.18;59.45;101867.81;4920306;28;45327;-46
2021/12/22 03:05:52;;;;;;;;;51.50;38.50;;;;;2.18;59.46;101867.81;4920336;28;45464;-46
2021/12/22 03:08:17;;;;;;;;;43.75;35.75;;;;;2.17;59.45;101869.53;4954539;28;45356;-46
2021/12/22 03:10:42;;;;;;;;;46.25;38.50;;;;;2.15;59.68;101868.59;4980175;28;45406;-46
2021/12/22 03:13:08;;;;;;;;;47.00;39.75;;;;;2.15;59.74;101865.09;4980532;28;45223;-47
2021/12/22 03:15:34;;;;;;;;;45.00;37.50;;;;;2.17;59.44;101869.53;4980350;28;45272;-47
2021/12/22 03:18:00;;;;;;;;;53.50;41.75;;;;;2.21;59.48;101866.22;4980243;28;45324;-48
2021/12/22 03:20:26;;;;;;;;;55.50;39.25;;;;;2.22;59.57;101865.38;4980324;28;45334;-45
2021/12/22 03:22:52;;;;;;;;;46.75;38.75;;;;;2.24;59.17;101868.94;4980344;28;45303;-46
2021/12/22 03:25:20;;;;;;;;;47.00;42.00;;;;;2.25;59.41;101872.41;4979953;28;45327;-46
2021/12/22 03:27:49;;;;;;;;;49.50;39.75;;;;;2.24;59.81;101858.56;4962499;28;46159;-46
2021/12/22 03:30:19;;;;;;;;;46.00;38.75;;;;;2.28;59.53;101859.56;4940904;28;45590;-47
2021/12/22 03:32:44;;;;;;;;;62.75;42.25;;;;;2.28;60.02;101864.75;4967532;28;45493;-46
2021/12/22 03:35:17;;;;;;;;;50.75;40.75;;;;;2.28;59.63;101864.75;4980096;28;45300;-46
2021/12/22 03:37:44;;;;;;;;;40.00;36.75;;;;;2.28;59.95;101860.44;4970125;28;45507;-46
2021/12/22 03:40:10;;;;;;;;;45.25;40.00;;;;;2.31;59.67;101866.56;4979674;28;45732;-47
2021/12/22 03:42:35;;;;;;;;;55.25;40.75;;;;;2.25;60.03;101855.16;4980126;28;45317;-48
2021/12/22 03:45:01;;;;;;;;;58.50;42.25;;;;;2.24;59.70;101850.78;4979139;28;45255;-45
2021/12/22 03:47:27;;;;;;;;;61.00;42.50;;;;;2.26;60.13;101843.94;4983546;28;45257;-47
2021/12/22 03:49:52;;;;;;;;;47.00;38.50;;;;;2.27;59.68;101845.69;4983386;28;45229;-49
2021/12/22 03:52:18;;;;;;;;;43.75;37.25;;;;;2.31;60.14;101849.28;4983694;28;45263;-46
2021/12/22 03:54:43;;;;;;;;;47.00;42.00;;;;;2.32;60.02;101847.59;4982929;28;45408;-45
2021/12/22 03:57:08;;;;;;;;;56.75;43.50;;;;;2.31;59.76;101843.22;4983413;28;46072;-49
2021/12/22 03:59:34;;;;;;;;;47.00;41.75;;;;;2.31;59.86;101846.69;4983204;28;45345;-48
2021/12/22 04:01:59;;;;;;;;;52.25;36.75;;;;;2.34;59.96;101848.50;4983586;28;45815;-48
2021/12/22 04:04:25;;;;;;;;;54.75;42.00;;;;;2.35;59.53;101845.09;4983185;28;45442;-48
2021/12/22 04:06:51;;;;;;;;;49.75;40.50;;;;;2.37;59.72;101846.94;4983185;28;45415;-47
2021/12/22 04:09:18;;;;;;;;;52.25;38.50;;;;;2.39;59.47;101847.88;4983001;28;45343;-48
2021/12/22 04:11:45;;;;;;;;;43.25;32.25;;;;;2.40;59.50;101847.06;4983122;28;45411;-45
2021/12/22 04:14:11;;;;;;;;;52.25;40.75;;;;;2.42;59.70;101844.50;4982984;28;45477;-49
2021/12/22 04:16:37;;;;;;;;;43.25;38.50;;;;;2.44;59.51;101845.47;4983163;28;46204;-46
2021/12/22 04:19:03;;;;;;;;;42.00;36.00;;;;;2.44;59.54;101842.88;4982829;28;45245;-50
2021/12/22 04:21:30;;;;;;;;;33.75;31.00;;;;;2.48;60.02;101833.47;4983185;28;45367;-48
2021/12/22 04:23:55;;;;;;;;;38.50;31.75;;;;;2.46;59.82;101829.94;4982682;28;45374;-48
2021/12/22 04:26:21;;;;;;;;;38.25;33.25;;;;;2.46;60.00;101828.22;4982767;28;45989;-48
2021/12/22 04:28:46;;;;;;;;;48.75;40.25;;;;;2.49;59.70;101824.84;4981510;28;45382;-48
2021/12/22 04:31:12;;;;;;;;;46.25;38.25;;;;;2.50;60.02;101830.09;4966414;28;45339;-45
2021/12/22 04:33:37;;;;;;;;;53.50;40.00;;;;;2.52;60.30;101840.53;4978035;28;45455;-47
2021/12/22 04:36:03;;;;;;;;;40.25;38.00;;;;;2.48;60.24;101844.75;4977386;28;48132;-46
2021/12/22 04:38:28;;;;;;;;;53.50;39.25;;;;;2.39;59.79;101837.50;4960475;28;45859;-48
2021/12/22 04:40:54;;;;;;;;;52.50;34.00;;;;;2.45;60.10;101847.19;4982637;28;45226;-46
2021/12/22 04:43:19;;;;;;;;;45.25;37.50;;;;;2.39;60.15;101847.88;4982505;28;45563;-47
2021/12/22 04:45:45;;;;;;;;;42.00;36.75;;;;;2.40;59.93;101859.13;4981552;28;45330;-50
2021/12/22 04:48:10;;;;;;;;;43.75;38.50;;;;;2.40;60.13;101861.72;4982451;28;45167;-49
2021/12/22 04:50:36;;;;;;;;;49.25;37.50;;;;;2.33;59.92;101851.94;4982569;28;45205;-48
2021/12/22 04:53:21;;;;;;;;;40.25;37.00;;;;;2.28;59.88;101852.66;4982392;28;45243;-48
2021/12/22 04:55:47;;;;;;;;;41.50;31.00;;;;;2.24;60.06;101852.50;4982121;28;47336;-48
2021/12/22 04:58:12;;;;;;;;;41.50;32.00;;;;;2.20;59.84;101855.78;4981646;28;45259;-46
2021/12/22 05:00:39;;;;;;;;;54.00;41.50;;;;;2.19;59.92;101859.19;4982465;28;45241;-46
2021/12/22 05:03:04;;;;;;;;;37.50;36.25;;;;;2.15;59.98;101862.50;4982116;28;45306;-49
2021/12/22 05:05:30;;;;;;;;;49.00;35.25;;;;;2.14;60.22;101866.81;4982295;28;45987;-48
2021/12/22 05:07:56;;;;;;;;;45.50;37.50;;;;;2.13;60.04;101865.03;4980911;28;45391;-45
2021/12/22 05:10:23;;;;;;;;;50.00;39.50;;;;;2.11;60.20;101853.72;4982128;28;45399;-45
2021/12/22 05:12:49;;;;;;;;;44.00;38.75;;;;;2.10;59.78;101854.53;4980756;28;45409;-47
2021/12/22 05:15:20;;;;;;;;;39.75;30.25;;;;;2.09;59.95;101852.81;4980808;28;45443;-45
2021/12/22 05:20:14;;;;;;;;;41.00;34.75;;;;;2.04;59.77;101838.78;4982234;28;45269;-46
2021/12/22 05:22:40;;;;;;;;;39.25;33.00;;;;;2.00;60.13;101830.00;4980590;28;45634;-47
2021/12/22 05:25:08;;;;;;;;;46.25;36.00;;;;;1.99;59.68;101825.63;4981823;28;45318;-45
2021/12/22 05:27:34;;;;;;;;;42.75;37.50;;;;;1.99;59.72;101824.72;4981901;28;45336;-47
2021/12/22 05:30:01;;;;;;;;;44.00;40.25;;;;;2.00;59.67;101830.00;4976450;28;45379;-46
2021/12/22 05:32:30;;;;;;;;;43.25;37.25;;;;;1.95;59.75;101827.22;4968321;28;45272;-46
2021/12/22 05:34:56;;;;;;;;;46.25;38.25;;;;;1.89;60.23;101829.56;4981899;28;47166;-47
2021/12/22 05:37:22;;;;;;;;;47.25;39.50;;;;;1.91;59.95;101837.38;4973240;28;45206;-46
2021/12/22 05:39:47;;;;;;;;;46.00;40.00;;;;;1.88;59.87;101835.56;4981646;28;45722;-47
2021/12/22 05:42:13;;;;;;;;;49.75;39.50;;;;;1.88;60.19;101832.97;4964105;28;45645;-47
2021/12/22 05:44:38;;;;;;;;;58.00;40.75;;;;;1.90;59.92;101838.22;4964047;28;46980;-46
2021/12/22 05:47:04;;;;;;;;;44.75;41.25;;;;;1.90;60.12;101823.56;4981526;28;45276;-48
2021/12/22 05:49:29;;;;;;;;;52.25;41.25;;;;;1.87;59.69;101835.50;4964108;28;45393;-49
2021/12/22 05:51:54;;;;;;;;;51.50;40.75;;;;;1.87;59.92;101845.88;4981531;28;45315;-47
2021/12/22 05:54:20;;;;;;;;;46.75;35.75;;;;;1.86;60.11;101849.28;4981347;28;46128;-47
2021/12/22 05:56:45;;;;;;;;;55.50;44.50;;;;;1.84;59.99;101851.84;4963810;28;45799;-50
2021/12/22 05:59:11;;;;;;;;;50.75;34.75;;;;;1.83;60.30;101850.06;4981553;28;45322;-48
2021/12/22 06:01:37;;;;;;;;;45.25;38.00;;;;;1.84;60.19;101841.47;4981372;28;45323;-46
2021/12/22 06:04:03;;;;;;;;;46.00;33.75;;;;;1.79;60.26;101843.88;4981561;28;45452;-46
2021/12/22 06:06:30;;;;;;;;;50.75;39.50;;;;;1.79;60.16;101856.81;4981143;28;45379;-49
2021/12/22 06:08:55;;;;;;;;;46.50;38.75;;;;;1.79;60.36;101858.53;4980341;28;45432;-45
2021/12/22 06:11:20;;;;;;;;;42.00;38.75;;;;;1.78;59.81;101859.38;4981161;28;45164;-48
2021/12/22 06:13:46;;;;;;;;;48.75;38.75;;;;;1.74;60.06;101866.13;4963655;28;45881;-48
2021/12/22 06:16:11;;;;;;;;;35.50;25.00;;;;;1.73;60.09;101856.59;4981156;28;45263;-45
2021/12/22 06:18:42;;;;;;;;;48.50;37.75;;;;;1.70;60.16;101860.75;4981352;28;45224;-47
2021/12/22 06:21:08;;;;;;;;;40.25;35.00;;;;;1.70;60.39;101863.34;4981132;28;45410;-49
2021/12/22 06:23:34;;;;;;;;;45.25;36.75;;;;;1.67;59.99;101856.34;4980939;28;45416;-46
2021/12/22 06:25:59;;;;;;;;;44.50;37.00;;;;;1.63;60.30;101846.69;4980706;28;45236;-46
2021/12/22 06:28:25;;;;;;;;;48.00;41.25;;;;;1.64;60.42;101847.56;4981121;28;45209;-47
2021/12/22 06:30:50;;;;;;;;;47.00;38.50;;;;;1.59;60.44;101845.66;4968648;28;45412;-46
2021/12/22 06:33:15;;;;;;;;;48.50;39.00;;;;;1.60;60.22;101850.03;4973452;28;46037;-47
2021/12/22 06:35:41;;;;;;;;;43.50;39.50;;;;;1.60;60.13;101842.25;4962189;28;45245;-46
2021/12/22 06:38:07;;;;;;;;;42.25;32.25;;;;;1.62;59.99;101853.56;4973710;28;45153;-50
2021/12/22 06:40:32;;;;;;;;;47.50;41.50;;;;;1.61;60.41;101854.41;4980535;28;45569;-47
2021/12/22 06:42:58;;;;;;;;;43.25;38.75;;;;;1.61;60.37;101853.50;4963120;28;46739;-46
2021/12/22 06:45:24;;;;;;;;;51.00;39.25;;;;;1.58;60.00;101849.06;4980775;28;45417;-47
2021/12/22 06:47:52;;;;;;;;;54.00;40.00;;;;;1.60;60.05;101850.03;4980946;28;45554;-49
2021/12/22 06:50:18;;;;;;;;;54.25;41.50;;;;;1.63;60.20;101851.84;4980519;28;45327;-45
2021/12/22 06:52:43;;;;;;;;;45.25;37.00;;;;;1.62;60.16;101853.56;4980728;28;45343;-49
2021/12/22 06:55:09;;;;;;;;;41.25;36.50;;;;;1.65;60.14;101850.22;4980205;28;45180;-45
2021/12/22 06:57:34;;;;;;;;;46.50;39.75;;;;;1.64;60.05;101850.16;4980984;28;45300;-44
2021/12/22 07:00:02;;;;;;;;;45.00;39.25;;;;;1.66;60.19;101851.09;4963011;28;45191;-46
2021/12/22 07:02:27;;;;;;;;;52.00;40.25;;;;;1.61;60.39;101859.56;4980515;28;46007;-46
2021/12/22 07:04:53;;;;;;;;;52.00;41.00;;;;;1.64;60.03;101863.13;4980261;28;45225;-46
2021/12/22 07:07:18;;;;;;;;;43.00;36.50;;;;;1.58;60.12;101848.19;4980827;28;45443;-47
2021/12/22 07:09:43;;;;;;;;;42.75;37.25;;;;;1.65;60.31;101857.09;4946275;28;45441;-46
2021/12/22 07:12:10;;;;;;;;;46.00;38.75;;;;;1.66;59.91;101864.06;4980323;28;45926;-45
2021/12/22 07:14:37;;;;;;;;;54.50;42.50;;;;;1.67;60.31;101858.91;4980289;28;45342;-45
2021/12/22 07:17:02;;;;;;;;;59.25;43.50;;;;;1.62;59.83;101839.72;4980587;28;45404;-44
2021/12/22 07:19:28;;;;;;;;;52.25;43.00;;;;;1.70;59.99;101858.16;4980153;28;45304;-47
2021/12/22 07:21:54;;;;;;;;;53.25;42.00;;;;;1.66;60.34;101840.72;4983635;28;45376;-45
2021/12/22 07:24:20;;;;;;;;;50.00;37.75;;;;;1.71;60.28;101844.38;4965867;28;45344;-48
2021/12/22 07:26:45;;;;;;;;;56.00;42.00;;;;;1.69;60.28;101843.47;4966383;28;45429;-48
2021/12/22 07:29:11;;;;;;;;;57.75;39.75;;;;;1.73;60.01;101850.53;4983596;28;45541;-47
2021/12/22 07:31:36;;;;;;;;;51.25;42.00;;;;;1.74;60.35;101847.97;4965015;28;46393;-45
2021/12/22 07:34:15;;;;;;;;;60.75;45.50;;;;;1.75;60.03;101848.88;4982320;28;45251;-48
2021/12/22 07:36:55;;;;;;;;;60.50;41.75;;;;;1.74;60.11;101852.31;4975215;28;45368;-45
2021/12/22 07:39:21;;;;;;;;;57.50;44.00;;;;;1.78;59.87;101852.47;4983462;28;45262;-46
2021/12/22 07:41:46;;;;;;;;;45.25;39.00;;;;;1.81;59.92;101854.28;4983334;28;47235;-46
2021/12/22 07:44:11;;;;;;;;;60.75;41.75;;;;;1.83;60.15;101856.97;4983593;28;45218;-46
2021/12/22 07:46:37;;;;;;;;;54.00;44.75;;;;;1.83;60.28;101856.97;4966057;28;45505;-48
2021/12/22 07:49:02;;;;;;;;;47.75;40.75;;;;;1.84;60.28;101846.66;4983593;28;45823;-48
2021/12/22 07:51:28;;;;;;;;;50.50;40.00;;;;;1.85;60.13;101843.25;4965700;28;46274;-45
2021/12/22 07:53:53;;;;;;;;;49.00;40.25;;;;;1.89;60.50;101839.94;4983190;28;45285;-45
2021/12/22 07:56:18;;;;;;;;;58.00;44.25;;;;;1.87;60.35;101851.94;4983386;28;45382;-53
2021/12/22 07:58:44;;;;;;;;;48.50;39.50;;;;;1.86;60.27;101842.41;4965922;28;45515;-44
2021/12/22 08:01:09;;;;;;;;;50.75;40.25;;;;;1.87;60.27;101851.06;4983196;28;45465;-44
2021/12/22 08:03:35;;;;;;;;;54.25;39.75;;;;;1.84;60.45;101857.00;4965663;28;45329;-47
2021/12/22 08:06:00;;;;;;;;;54.00;42.25;;;;;1.81;60.44;101850.81;4983318;28;45365;-45
2021/12/22 08:08:25;;;;;;;;;59.25;42.50;;;;;1.85;60.51;101855.28;4983347;28;45426;-49
2021/12/22 08:10:51;;;;;;;;;49.25;35.25;;;;;1.83;60.53;101862.16;4982592;28;46144;-45
2021/12/22 08:13:16;;;;;;;;;56.75;43.00;;;;;1.82;60.33;101860.38;4983185;28;45300;-48
2021/12/22 08:15:43;;;;;;;;;48.75;39.50;;;;;1.82;60.49;101862.97;4983117;28;45327;-46
2021/12/22 08:18:09;;;;;;;;;58.75;45.00;;;;;1.83;59.99;101868.19;4983165;28;45461;-45
2021/12/22 08:20:35;;;;;;;;;53.00;43.50;;;;;1.87;60.06;101864.91;4982759;28;46631;-46
2021/12/22 08:23:00;;;;;;;;;54.00;39.75;;;;;1.90;60.68;101852.06;4965479;28;45267;-47
2021/12/22 08:25:26;;;;;;;;;50.25;38.75;;;;;1.89;60.67;101847.72;4982560;28;45254;-47
2021/12/22 08:27:52;;;;;;;;;51.00;39.50;;;;;1.90;60.39;101846.91;4983083;28;45247;-44
2021/12/22 08:30:17;;;;;;;;;58.25;42.50;;;;;1.93;60.45;101836.63;4974545;28;46104;-45
2021/12/22 08:32:43;;;;;;;;;59.50;39.25;;;;;1.97;60.46;101842.81;4969981;28;45241;-44
2021/12/22 08:35:11;;;;;;;;;47.25;40.75;;;;;1.95;60.10;101840.16;4982817;28;45389;-45
2021/12/22 08:40:22;;;;;;;;;59.25;43.50;;;;;1.96;60.77;101841.03;4982271;28;45450;-45
2021/12/22 08:42:49;;;;;;;;;59.25;42.00;;;;;2.00;60.33;101844.66;4982590;28;45411;-49
2021/12/22 08:45:14;;;;;;;;;51.25;42.75;;;;;1.97;60.57;101847.13;4982717;28;45216;-46
2021/12/22 08:47:40;;;;;;;;;45.25;41.00;;;;;1.99;60.39;101846.38;4982756;28;45457;-48
2021/12/22 08:50:08;;;;;;;;;52.75;41.00;;;;;1.97;60.83;101847.13;4982354;28;46041;-46
2021/12/22 08:52:34;;;;;;;;;49.25;39.50;;;;;1.95;60.81;101842.75;4982795;28;45300;-46
2021/12/22 08:54:59;;;;;;;;;55.00;40.50;;;;;1.95;60.84;101847.94;4982154;28;45394;-47
2021/12/22 08:57:24;;;;;;;;;52.50;40.75;;;;;1.96;60.77;101841.03;4982428;28;45242;-46
2021/12/22 08:59:50;;;;;;;;;48.25;37.75;;;;;1.92;60.51;101832.25;4982157;28;45974;-48
2021/12/22 09:02:16;;;;;;;;;51.75;39.50;;;;;1.91;60.64;101834.78;4982592;28;45368;-46
2021/12/22 09:04:41;;;;;;;;;47.25;39.75;;;;;1.93;60.93;101825.38;4982304;28;45323;-49
2021/12/22 09:07:06;;;;;;;;;50.50;41.25;;;;;1.88;60.94;101817.41;4964742;28;45508;-46
2021/12/22 09:09:32;;;;;;;;;49.75;41.00;;;;;1.95;60.91;101823.75;4964053;28;47137;-45
2021/12/22 09:11:58;;;;;;;;;53.50;38.25;;;;;1.94;60.70;101822.84;4982093;28;45398;-46
2021/12/22 09:14:24;;;;;;;;;56.00;46.00;;;;;1.98;60.35;101825.56;4964631;28;45389;-48
2021/12/22 09:16:51;;;;;;;;;52.25;41.00;;;;;2.01;60.70;101823.06;4982325;28;45517;-45
2021/12/22 09:19:17;;;;;;;;;45.00;38.25;;;;;2.02;60.29;101838.69;4981890;28;46389;-45
2021/12/22 09:21:43;;;;;;;;;51.75;41.50;;;;;1.99;60.42;101824.72;4964482;28;45390;-48
2021/12/22 09:24:08;;;;;;;;;52.50;42.25;;;;;2.01;60.35;101828.25;4981990;28;45434;-49
2021/12/22 09:26:34;;;;;;;;;55.75;40.50;;;;;1.97;60.55;101831.56;4981936;28;45472;-49
2021/12/22 09:29:01;;;;;;;;;44.50;41.25;;;;;2.01;60.72;101836.91;4981784;28;45269;-46
2021/12/22 09:31:26;;;;;;;;;59.50;44.50;;;;;2.01;61.06;101823.06;4964680;28;45340;-48
2021/12/22 09:33:52;;;;;;;;;55.50;40.25;;;;;2.03;60.51;101824.03;4979248;28;45321;-47
2021/12/22 09:36:19;;;;;;;;;49.75;39.75;;;;;2.01;60.83;101817.91;4958261;28;45478;-49
2021/12/22 09:38:45;;;;;;;;;47.50;38.50;;;;;1.98;60.74;101817.78;4979090;28;45199;-46
2021/12/22 09:41:11;;;;;;;;;44.25;39.00;;;;;2.01;60.50;101829.13;4963916;28;45327;-45
2021/12/22 09:43:38;;;;;;;;;46.50;37.25;;;;;1.94;60.77;101825.44;4981449;28;45324;-47
2021/12/22 09:46:10;;;;;;;;;43.75;35.50;;;;;1.92;60.62;101813.25;4964272;28;45589;-48
2021/12/22 09:53:34;;;;;;;;;60.00;42.50;;;;;2.08;60.36;101831.16;4981544;28;45359;-48
2021/12/22 09:55:59;;;;;;;;;54.50;42.50;;;;;2.12;60.38;101834.75;4981228;28;45258;-47
2021/12/22 09:58:26;;;;;;;;;49.25;38.75;;;;;2.09;60.42;101832.91;4981110;28;46156;-46
2021/12/22 10:00:53;;;;;;;;;45.25;39.00;;;;;2.08;61.01;101841.53;4981361;28;45236;-48
2021/12/22 10:03:20;;;;;;;;;55.75;41.25;;;;;2.09;60.46;101843.28;4981110;28;45511;-47
2021/12/22 10:05:46;;;;;;;;;57.00;41.50;;;;;2.15;60.74;101846.94;4981221;28;45317;-49
2021/12/22 10:08:16;;;;;;;;;52.00;39.00;;;;;2.19;60.64;101843.63;4980966;28;45363;-46
2021/12/22 10:10:45;;;;;;;;;42.00;37.75;;;;;2.18;60.56;101840.16;4980973;28;45254;-48
2021/12/22 10:13:16;;;;;;;;;55.25;39.75;;;;;2.21;61.03;101844.59;4981342;28;45286;-47
2021/12/22 10:15:43;;;;;;;;;58.50;42.00;;;;;2.24;60.79;101840.41;4981196;28;45251;-46
2021/12/22 10:18:10;;;;;;;;;60.25;45.50;;;;;2.26;60.59;101835.25;4980998;28;45311;-46
2021/12/22 10:20:36;;;;;;;;;60.50;45.00;;;;;2.28;60.50;101839.69;4947232;28;45421;-46
2021/12/22 10:23:17;;;;;;;;;57.00;43.50;;;;;2.25;60.99;101839.59;4981047;28;45410;-45
2021/12/22 10:25:43;;;;;;;;;51.75;42.00;;;;;2.25;60.36;101834.41;4980655;28;45254;-47
2021/12/22 10:28:16;;;;;;;;;60.25;42.50;;;;;2.30;60.84;101847.50;4980943;28;46121;-47
2021/12/22 10:30:42;;;;;;;;;61.75;45.75;;;;;2.34;60.86;101838.13;4952105;28;45297;-46
2021/12/22 10:33:15;;;;;;;;;57.75;46.25;;;;;2.37;60.56;101840.88;4955270;28;45372;-47
2021/12/22 10:35:43;;;;;;;;;45.25;36.00;;;;;2.39;60.59;101836.59;4979751;28;45295;-47
2021/12/22 10:38:11;;;;;;;;;54.75;41.75;;;;;2.30;60.70;101820.69;4940087;28;47686;-45
2021/12/22 10:40:41;;;;;;;;;53.25;41.75;;;;;2.44;60.34;101832.50;4962638;28;45430;-48
2021/12/22 10:43:09;;;;;;;;;59.25;45.50;;;;;2.43;60.66;101830.72;4980726;28;45308;-51
2021/12/22 10:45:35;;;;;;;;;58.00;45.25;;;;;2.48;60.46;101833.47;4963651;28;45349;-46
2021/12/22 10:50:57;;;;;;;;;58.25;42.25;;;;;2.41;60.65;101822.84;4980629;28;45363;-47
2021/12/22 10:53:23;;;;;;;;;49.00;41.25;;;;;2.43;60.54;101820.34;4963336;28;45326;-46
2021/12/22 10:55:51;;;;;;;;;50.75;38.75;;;;;2.41;60.78;101816.78;4979599;28;45435;-45
2021/12/22 10:58:29;;;;;;;;;55.25;42.00;;;;;2.43;60.45;101808.22;4980284;28;45413;-47
2021/12/22 11:01:09;;;;;;;;;59.50;44.00;;;;;2.43;60.77;101797.84;4980348;28;45334;-50
2021/12/22 11:03:41;;;;;;;;;57.25;43.75;;;;;2.44;60.92;101793.56;4980504;28;45441;-48
2021/12/22 11:06:27;;;;;;;;;45.25;38.25;;;;;2.41;60.91;101783.94;4962595;28;45910;-46
2021/12/22 11:09:03;;;;;;;;;48.25;38.50;;;;;2.42;61.16;101779.66;4980051;28;46206;-46
2021/12/22 11:11:31;;;;;;;;;48.75;40.50;;;;;2.43;60.59;101784.88;4980362;28;45263;-47
2021/12/22 11:14:22;;;;;;;;;55.50;41.00;;;;;2.46;60.72;101784.09;4980234;28;45266;-48
2021/12/22 11:17:08;;;;;;;;;46.75;39.50;;;;;2.48;60.41;101773.78;4980512;28;45260;-45
2021/12/22 11:19:33;;;;;;;;;61.50;43.75;;;;;2.49;60.86;101773.84;4980039;28;47574;-49
2021/12/22 11:24:39;;;;;;;;;49.25;40.00;;;;;2.55;60.46;101768.88;4979981;28;45389;-47
2021/12/22 11:27:05;;;;;;;;;48.00;39.00;;;;;2.55;60.41;101763.69;4946549;28;45371;-48
2021/12/22 11:29:36;;;;;;;;;46.50;38.25;;;;;2.57;60.76;101766.34;4960868;28;45762;-46
2021/12/22 11:32:07;;;;;;;;;44.75;38.50;;;;;2.58;60.44;101758.59;4962814;28;45458;-45
2021/12/22 11:34:35;;;;;;;;;49.25;40.50;;;;;2.60;60.63;101759.53;4980125;28;45316;-44
2021/12/22 11:37:02;;;;;;;;;58.50;43.75;;;;;2.63;60.47;101752.66;4971264;28;45239;-46
2021/12/22 11:39:30;;;;;;;;;50.25;40.00;;;;;2.64;60.58;101739.78;4979633;28;46976;-46
2021/12/22 11:41:58;;;;;;;;;55.75;42.00;;;;;2.69;60.44;101745.09;4962188;28;45441;-53